sensor_id;sensor_type;location;lat;lon;timestamp;pressure;altitude;pressure_sealevel;temperature;humidity
67345;BME280;54230;52.402;6.276;2023-06-04T00:00:04;102270.0;;;15.2;50.4
67345;BME280;54230;52.402;6.276;2023-06-04T00:05:00;102280.0;;;15.1;50.4
67345;BME280;54230;52.402;6.276;2023-06-04T00:10:00;102270.0;;;14.9;50.4
67345;BME280;54230;52.402;6.276;2023-06-04T00:15:00;102280.0;;;14.8;50.6
67345;BME280;54230;52.402;6.276;2023-06-04T00:20:00;102270.0;;;14.8;50.5
67345;BME280;54230;52.402;6.276;2023-06-04T00:25:00;102270.0;;;14.8;50.5
67345;BME280;54230;52.402;6.276;2023-06-04T00:30:00;102270.0;;;14.8;50.6
67345;BME280;54230;52.402;6.276;2023-06-04T00:35:00;102260.0;;;14.6;50.9
67345;BME280;54230;52.402;6.276;2023-06-04T00:40:00;102270.0;;;14.5;51.4
67345;BME280;54230;52.402;6.276;2023-06-04T00:45:00;102270.0;;;14.4;51.8
67345;BME280;54230;52.402;6.276;2023-06-04T00:50:00;102270.0;;;14.4;51.9
67345;BME280;54230;52.402;6.276;2023-06-04T00:55:00;102270.0;;;14.4;51.8
67345;BME280;54230;52.402;6.276;2023-06-04T01:00:00;102270.0;;;14.2;52.9
67345;BME280;54230;52.402;6.276;2023-06-04T01:05:07;102280.0;;;14.0;53.1
67345;BME280;54230;52.402;6.276;2023-06-04T01:10:00;102280.0;;;13.9;53.4
67345;BME280;54230;52.402;6.276;2023-06-04T01:15:00;102270.0;;;13.8;53.4
67345;BME280;54230;52.402;6.276;2023-06-04T01:20:06;102270.0;;;13.7;53.4
67345;BME280;54230;52.402;6.276;2023-06-04T01:25:04;102270.0;;;13.7;53.5
67345;BME280;54230;52.402;6.276;2023-06-04T01:30:00;102270.0;;;13.7;53.6
67345;BME280;54230;52.402;6.276;2023-06-04T01:35:00;102270.0;;;13.6;54.0
67345;BME280;54230;52.402;6.276;2023-06-04T01:40:00;102270.0;;;13.6;54.2
67345;BME280;54230;52.402;6.276;2023-06-04T01:45:00;102270.0;;;13.4;54.6
67345;BME280;54230;52.402;6.276;2023-06-04T01:50:00;102270.0;;;13.4;54.7
67345;BME280;54230;52.402;6.276;2023-06-04T01:55:00;102270.0;;;13.2;55.4
67345;BME280;54230;52.402;6.276;2023-06-04T02:00:00;102270.0;;;13.1;55.6
67345;BME280;54230;52.402;6.276;2023-06-04T02:05:00;102270.0;;;13.1;56.0
67345;BME280;54230;52.402;6.276;2023-06-04T02:10:00;102270.0;;;13.0;56.2
67345;BME280;54230;52.402;6.276;2023-06-04T02:15:00;102270.0;;;13.0;56.4
67345;BME280;54230;52.402;6.276;2023-06-04T02:20:00;102270.0;;;12.9;56.4
67345;BME280;54230;52.402;6.276;2023-06-04T02:25:00;102270.0;;;12.8;57.0
67345;BME280;54230;52.402;6.276;2023-06-04T02:30:00;102270.0;;;12.8;57.2
67345;BME280;54230;52.402;6.276;2023-06-04T02:35:00;102270.0;;;12.7;58.0
67345;BME280;54230;52.402;6.276;2023-06-04T02:40:00;102270.0;;;12.7;57.9
67345;BME280;54230;52.402;6.276;2023-06-04T02:45:00;102260.0;;;12.7;58.1
67345;BME280;54230;52.402;6.276;2023-06-04T02:50:00;102250.0;;;12.5;58.8
67345;BME280;54230;52.402;6.276;2023-06-04T02:55:00;102270.0;;;12.4;59.8
67345;BME280;54230;52.402;6.276;2023-06-04T03:00:00;102260.0;;;12.4;60.3
67345;BME280;54230;52.402;6.276;2023-06-04T03:05:00;102270.0;;;12.3;60.6
67345;BME280;54230;52.402;6.276;2023-06-04T03:10:00;102270.0;;;12.2;61.1
67345;BME280;54230;52.402;6.276;2023-06-04T03:15:00;102270.0;;;12.2;61.5
67345;BME280;54230;52.402;6.276;2023-06-04T03:20:00;102260.0;;;12.1;61.8
67345;BME280;54230;52.402;6.276;2023-06-04T03:25:00;102270.0;;;12.2;61.9
67345;BME280;54230;52.402;6.276;2023-06-04T03:30:01;102280.0;;;12.1;62.5
67345;BME280;54230;52.402;6.276;2023-06-04T03:35:00;102270.0;;;12.1;62.9
67345;BME280;54230;52.402;6.276;2023-06-04T03:40:00;102270.0;;;12.1;63.4
67345;BME280;54230;52.402;6.276;2023-06-04T03:45:00;102270.0;;;12.1;63.4
67345;BME280;54230;52.402;6.276;2023-06-04T03:50:00;102270.0;;;12.2;63.8
67345;BME280;54230;52.402;6.276;2023-06-04T03:55:00;102270.0;;;12.2;64.0
67345;BME280;54230;52.402;6.276;2023-06-04T04:00:00;102270.0;;;12.3;64.1
67345;BME280;54230;52.402;6.276;2023-06-04T04:05:00;102260.0;;;12.3;64.6
67345;BME280;54230;52.402;6.276;2023-06-04T04:10:00;102260.0;;;12.4;65.0
67345;BME280;54230;52.402;6.276;2023-06-04T04:15:00;102260.0;;;12.5;65.1
67345;BME280;54230;52.402;6.276;2023-06-04T04:20:00;102260.0;;;12.5;65.8
67345;BME280;54230;52.402;6.276;2023-06-04T04:25:00;102260.0;;;12.6;65.8
67345;BME280;54230;52.402;6.276;2023-06-04T04:30:00;102260.0;;;12.8;65.8
67345;BME280;54230;52.402;6.276;2023-06-04T04:35:00;102260.0;;;12.9;66.0
67345;BME280;54230;52.402;6.276;2023-06-04T04:40:00;102260.0;;;13.1;65.9
67345;BME280;54230;52.402;6.276;2023-06-04T04:45:00;102260.0;;;13.2;66.2
67345;BME280;54230;52.402;6.276;2023-06-04T04:50:00;102260.0;;;13.2;66.4
67345;BME280;54230;52.402;6.276;2023-06-04T04:55:00;102260.0;;;13.3;66.5
67345;BME280;54230;52.402;6.276;2023-06-04T05:00:01;102260.0;;;13.5;66.0
67345;BME280;54230;52.402;6.276;2023-06-04T05:05:00;102260.0;;;13.6;65.8
67345;BME280;54230;52.402;6.276;2023-06-04T05:10:00;102270.0;;;13.7;65.9
67345;BME280;54230;52.402;6.276;2023-06-04T05:15:00;102270.0;;;13.9;65.8
67345;BME280;54230;52.402;6.276;2023-06-04T05:20:00;102280.0;;;14.0;65.6
67345;BME280;54230;52.402;6.276;2023-06-04T05:25:00;102270.0;;;14.0;65.7
67345;BME280;54230;52.402;6.276;2023-06-04T05:30:00;102290.0;;;14.1;65.8
67345;BME280;54230;52.402;6.276;2023-06-04T05:35:00;102280.0;;;14.4;65.3
67345;BME280;54230;52.402;6.276;2023-06-04T05:40:00;102280.0;;;14.6;64.6
67345;BME280;54230;52.402;6.276;2023-06-04T05:45:00;102280.0;;;14.8;63.9
67345;BME280;54230;52.402;6.276;2023-06-04T05:50:00;102280.0;;;15.0;63.4
67345;BME280;54230;52.402;6.276;2023-06-04T05:55:00;102280.0;;;15.2;62.6
67345;BME280;54230;52.402;6.276;2023-06-04T06:00:00;102280.0;;;15.3;62.0
67345;BME280;54230;52.402;6.276;2023-06-04T06:05:00;102280.0;;;15.5;60.7
67345;BME280;54230;52.402;6.276;2023-06-04T06:10:00;102290.0;;;15.7;60.2
67345;BME280;54230;52.402;6.276;2023-06-04T06:15:00;102280.0;;;15.9;59.6
67345;BME280;54230;52.402;6.276;2023-06-04T06:20:00;102280.0;;;16.1;58.4
67345;BME280;54230;52.402;6.276;2023-06-04T06:25:00;102280.0;;;16.3;57.8
67345;BME280;54230;52.402;6.276;2023-06-04T06:30:00;102280.0;;;16.6;56.9
67345;BME280;54230;52.402;6.276;2023-06-04T06:35:00;102280.0;;;16.7;55.4
67345;BME280;54230;52.402;6.276;2023-06-04T06:40:00;102290.0;;;17.0;54.9
67345;BME280;54230;52.402;6.276;2023-06-04T06:45:00;102290.0;;;17.2;53.8
67345;BME280;54230;52.402;6.276;2023-06-04T06:50:01;102290.0;;;17.4;52.5
67345;BME280;54230;52.402;6.276;2023-06-04T06:55:00;102290.0;;;17.6;50.3
67345;BME280;54230;52.402;6.276;2023-06-04T07:00:00;102290.0;;;17.6;49.0
67345;BME280;54230;52.402;6.276;2023-06-04T07:05:00;102300.0;;;17.9;48.8
67345;BME280;54230;52.402;6.276;2023-06-04T07:10:00;102310.0;;;18.1;49.2
67345;BME280;54230;52.402;6.276;2023-06-04T07:15:00;102310.0;;;18.4;50.3
67345;BME280;54230;52.402;6.276;2023-06-04T07:20:00;102310.0;;;18.6;50.1
67345;BME280;54230;52.402;6.276;2023-06-04T07:25:00;102310.0;;;18.7;49.1
67345;BME280;54230;52.402;6.276;2023-06-04T07:30:00;102310.0;;;18.9;48.8
67345;BME280;54230;52.402;6.276;2023-06-04T07:35:01;102310.0;;;19.0;48.2
67345;BME280;54230;52.402;6.276;2023-06-04T07:40:00;102320.0;;;19.6;46.7
67345;BME280;54230;52.402;6.276;2023-06-04T07:45:00;102320.0;;;19.5;47.0
67345;BME280;54230;52.402;6.276;2023-06-04T07:50:00;102320.0;;;19.7;46.2
67345;BME280;54230;52.402;6.276;2023-06-04T07:55:02;102310.0;;;19.7;45.5
67345;BME280;54230;52.402;6.276;2023-06-04T08:00:00;102320.0;;;19.6;45.8
67345;BME280;54230;52.402;6.276;2023-06-04T08:05:00;102320.0;;;19.7;46.1
67345;BME280;54230;52.402;6.276;2023-06-04T08:10:00;102320.0;;;20.0;45.0
67345;BME280;54230;52.402;6.276;2023-06-04T08:15:00;102320.0;;;20.2;44.3
67345;BME280;54230;52.402;6.276;2023-06-04T08:20:00;102320.0;;;20.6;43.1
67345;BME280;54230;52.402;6.276;2023-06-04T08:25:00;102320.0;;;20.7;43.1
67345;BME280;54230;52.402;6.276;2023-06-04T08:30:00;102320.0;;;20.6;43.1
67345;BME280;54230;52.402;6.276;2023-06-04T08:35:00;102320.0;;;20.7;42.4
67345;BME280;54230;52.402;6.276;2023-06-04T08:40:00;102320.0;;;20.7;42.4
67345;BME280;54230;52.402;6.276;2023-06-04T08:45:00;102320.0;;;20.8;41.2
67345;BME280;54230;52.402;6.276;2023-06-04T08:50:01;102330.0;;;20.9;41.8
67345;BME280;54230;52.402;6.276;2023-06-04T08:55:01;102330.0;;;21.0;41.3
67345;BME280;54230;52.402;6.276;2023-06-04T09:00:01;102330.0;;;21.0;40.8
67345;BME280;54230;52.402;6.276;2023-06-04T09:05:01;102330.0;;;21.2;40.8
67345;BME280;54230;52.402;6.276;2023-06-04T09:10:00;102320.0;;;21.3;40.2
67345;BME280;54230;52.402;6.276;2023-06-04T09:15:00;102330.0;;;21.3;39.1
67345;BME280;54230;52.402;6.276;2023-06-04T09:20:00;102330.0;;;21.6;38.8
67345;BME280;54230;52.402;6.276;2023-06-04T09:25:03;102330.0;;;21.6;38.9
67345;BME280;54230;52.402;6.276;2023-06-04T09:30:00;102330.0;;;21.7;38.2
67345;BME280;54230;52.402;6.276;2023-06-04T09:35:08;102330.0;;;21.8;37.9
67345;BME280;54230;52.402;6.276;2023-06-04T09:40:00;102330.0;;;22.0;37.6
67345;BME280;54230;52.402;6.276;2023-06-04T09:45:00;102320.0;;;22.4;36.2
67345;BME280;54230;52.402;6.276;2023-06-04T09:50:00;102320.0;;;22.3;35.6
67345;BME280;54230;52.402;6.276;2023-06-04T09:55:00;102320.0;;;22.6;34.8
67345;BME280;54230;52.402;6.276;2023-06-04T10:00:01;102320.0;;;22.9;34.4
67345;BME280;54230;52.402;6.276;2023-06-04T10:05:00;102320.0;;;22.7;34.5
67345;BME280;54230;52.402;6.276;2023-06-04T10:10:01;102320.0;;;22.5;34.8
67345;BME280;54230;52.402;6.276;2023-06-04T10:15:02;102320.0;;;22.5;33.9
67345;BME280;54230;52.402;6.276;2023-06-04T10:20:01;102320.0;;;22.6;33.9
67345;BME280;54230;52.402;6.276;2023-06-04T10:25:00;102320.0;;;23.0;33.9
67345;BME280;54230;52.402;6.276;2023-06-04T10:30:01;102320.0;;;23.2;32.7
67345;BME280;54230;52.402;6.276;2023-06-04T10:35:03;102320.0;;;23.4;32.3
67345;BME280;54230;52.402;6.276;2023-06-04T10:40:00;102330.0;;;23.4;33.1
67345;BME280;54230;52.402;6.276;2023-06-04T10:45:00;102320.0;;;23.6;32.1
67345;BME280;54230;52.402;6.276;2023-06-04T10:50:07;102310.0;;;23.9;31.4
67345;BME280;54230;52.402;6.276;2023-06-04T10:55:03;102310.0;;;23.9;30.3
67345;BME280;54230;52.402;6.276;2023-06-04T11:00:00;102310.0;;;24.1;30.1
67345;BME280;54230;52.402;6.276;2023-06-04T11:05:01;102310.0;;;24.0;31.3
67345;BME280;54230;52.402;6.276;2023-06-04T11:10:00;102310.0;;;24.0;30.4
67345;BME280;54230;52.402;6.276;2023-06-04T11:15:00;102310.0;;;24.3;30.4
67345;BME280;54230;52.402;6.276;2023-06-04T11:20:00;102310.0;;;24.3;30.7
67345;BME280;54230;52.402;6.276;2023-06-04T11:25:01;102300.0;;;24.1;29.7
67345;BME280;54230;52.402;6.276;2023-06-04T11:30:01;102290.0;;;24.1;30.4
67345;BME280;54230;52.402;6.276;2023-06-04T11:35:02;102290.0;;;24.4;30.7
67345;BME280;54230;52.402;6.276;2023-06-04T11:40:00;102280.0;;;24.7;30.4
67345;BME280;54230;52.402;6.276;2023-06-04T11:45:00;102280.0;;;24.8;29.7
67345;BME280;54230;52.402;6.276;2023-06-04T11:50:00;102280.0;;;24.7;30.3
67345;BME280;54230;52.402;6.276;2023-06-04T11:55:00;102270.0;;;24.7;29.6
67345;BME280;54230;52.402;6.276;2023-06-04T12:00:00;102270.0;;;24.6;30.0
67345;BME280;54230;52.402;6.276;2023-06-04T12:05:10;102260.0;;;24.8;29.6
67345;BME280;54230;52.402;6.276;2023-06-04T12:10:05;102260.0;;;24.9;29.2
67345;BME280;54230;52.402;6.276;2023-06-04T12:15:00;102260.0;;;24.7;29.9
67345;BME280;54230;52.402;6.276;2023-06-04T12:20:00;102250.0;;;24.9;30.3
67345;BME280;54230;52.402;6.276;2023-06-04T12:25:00;102260.0;;;24.8;30.8
67345;BME280;54230;52.402;6.276;2023-06-04T12:30:02;102250.0;;;24.5;31.6
67345;BME280;54230;52.402;6.276;2023-06-04T12:35:00;102250.0;;;24.8;31.1
67345;BME280;54230;52.402;6.276;2023-06-04T12:40:00;102260.0;;;25.1;31.1
67345;BME280;54230;52.402;6.276;2023-06-04T12:45:00;102260.0;;;24.7;31.3
67345;BME280;54230;52.402;6.276;2023-06-04T12:50:00;102250.0;;;24.8;31.1
67345;BME280;54230;52.402;6.276;2023-06-04T12:55:01;102250.0;;;24.6;31.5
67345;BME280;54230;52.402;6.276;2023-06-04T13:00:00;102250.0;;;25.4;31.2
67345;BME280;54230;52.402;6.276;2023-06-04T13:05:00;102260.0;;;25.7;29.6
67345;BME280;54230;52.402;6.276;2023-06-04T13:10:00;102250.0;;;26.2;29.1
67345;BME280;54230;52.402;6.276;2023-06-04T13:15:00;102250.0;;;26.4;30.6
67345;BME280;54230;52.402;6.276;2023-06-04T13:20:00;102250.0;;;26.1;29.6
67345;BME280;54230;52.402;6.276;2023-06-04T13:25:01;102250.0;;;25.7;29.4
67345;BME280;54230;52.402;6.276;2023-06-04T13:30:00;102250.0;;;25.6;30.0
67345;BME280;54230;52.402;6.276;2023-06-04T13:35:01;102250.0;;;26.0;30.0
67345;BME280;54230;52.402;6.276;2023-06-04T13:40:00;102250.0;;;27.0;28.6
67345;BME280;54230;52.402;6.276;2023-06-04T13:45:00;102250.0;;;27.7;29.3
67345;BME280;54230;52.402;6.276;2023-06-04T13:50:00;102240.0;;;28.5;28.0
67345;BME280;54230;52.402;6.276;2023-06-04T13:55:00;102240.0;;;29.7;26.9
67345;BME280;54230;52.402;6.276;2023-06-04T14:00:00;102230.0;;;30.3;25.0
67345;BME280;54230;52.402;6.276;2023-06-04T14:05:00;102230.0;;;29.9;24.0
67345;BME280;54230;52.402;6.276;2023-06-04T14:10:00;102220.0;;;29.3;25.0
67345;BME280;54230;52.402;6.276;2023-06-04T14:15:00;102230.0;;;29.3;25.6
67345;BME280;54230;52.402;6.276;2023-06-04T14:20:00;102230.0;;;29.4;24.8
67345;BME280;54230;52.402;6.276;2023-06-04T14:25:01;102230.0;;;29.3;24.8
67345;BME280;54230;52.402;6.276;2023-06-04T14:30:00;102210.0;;;29.2;24.6
67345;BME280;54230;52.402;6.276;2023-06-04T14:35:00;102220.0;;;29.2;25.2
67345;BME280;54230;52.402;6.276;2023-06-04T14:40:00;102220.0;;;29.0;25.2
67345;BME280;54230;52.402;6.276;2023-06-04T14:45:00;102210.0;;;29.1;26.0
67345;BME280;54230;52.402;6.276;2023-06-04T14:50:00;102210.0;;;29.4;25.0
67345;BME280;54230;52.402;6.276;2023-06-04T14:55:00;102220.0;;;29.2;25.1
67345;BME280;54230;52.402;6.276;2023-06-04T15:00:00;102210.0;;;28.9;25.4
67345;BME280;54230;52.402;6.276;2023-06-04T15:05:00;102210.0;;;28.9;25.8
67345;BME280;54230;52.402;6.276;2023-06-04T15:10:00;102200.0;;;28.8;26.2
67345;BME280;54230;52.402;6.276;2023-06-04T15:15:00;102200.0;;;28.6;25.5
67345;BME280;54230;52.402;6.276;2023-06-04T15:20:00;102190.0;;;28.4;26.2
67345;BME280;54230;52.402;6.276;2023-06-04T15:25:00;102190.0;;;28.5;26.3
67345;BME280;54230;52.402;6.276;2023-06-04T15:30:00;102190.0;;;28.8;25.8
67345;BME280;54230;52.402;6.276;2023-06-04T15:35:00;102190.0;;;28.6;26.1
67345;BME280;54230;52.402;6.276;2023-06-04T15:40:00;102190.0;;;28.9;25.7
67345;BME280;54230;52.402;6.276;2023-06-04T15:45:00;102190.0;;;28.9;25.5
67345;BME280;54230;52.402;6.276;2023-06-04T15:50:00;102190.0;;;28.5;25.8
67345;BME280;54230;52.402;6.276;2023-06-04T15:55:00;102200.0;;;28.2;25.9
67345;BME280;54230;52.402;6.276;2023-06-04T16:00:00;102190.0;;;28.2;25.9
67345;BME280;54230;52.402;6.276;2023-06-04T16:05:00;102190.0;;;28.1;26.1
67345;BME280;54230;52.402;6.276;2023-06-04T16:10:00;102180.0;;;28.0;25.8
67345;BME280;54230;52.402;6.276;2023-06-04T16:15:00;102180.0;;;28.2;26.5
67345;BME280;54230;52.402;6.276;2023-06-04T16:20:00;102180.0;;;28.6;26.6
67345;BME280;54230;52.402;6.276;2023-06-04T16:25:00;102170.0;;;28.6;26.6
67345;BME280;54230;52.402;6.276;2023-06-04T16:30:00;102170.0;;;28.5;26.9
67345;BME280;54230;52.402;6.276;2023-06-04T16:35:00;102160.0;;;28.5;27.4
67345;BME280;54230;52.402;6.276;2023-06-04T16:40:00;102170.0;;;28.4;27.1
67345;BME280;54230;52.402;6.276;2023-06-04T16:45:00;102160.0;;;28.4;27.4
67345;BME280;54230;52.402;6.276;2023-06-04T16:50:00;102170.0;;;28.2;28.6
67345;BME280;54230;52.402;6.276;2023-06-04T16:55:00;102170.0;;;28.3;28.7
67345;BME280;54230;52.402;6.276;2023-06-04T17:00:00;102170.0;;;27.9;28.7
67345;BME280;54230;52.402;6.276;2023-06-04T17:05:00;102170.0;;;27.6;29.6
67345;BME280;54230;52.402;6.276;2023-06-04T17:10:00;102170.0;;;27.6;29.7
67345;BME280;54230;52.402;6.276;2023-06-04T17:15:00;102170.0;;;27.6;29.8
67345;BME280;54230;52.402;6.276;2023-06-04T17:20:00;102170.0;;;27.6;29.9
67345;BME280;54230;52.402;6.276;2023-06-04T17:25:00;102170.0;;;27.5;30.4
67345;BME280;54230;52.402;6.276;2023-06-04T17:30:00;102180.0;;;27.3;31.4
67345;BME280;54230;52.402;6.276;2023-06-04T17:35:00;102180.0;;;27.1;31.6
67345;BME280;54230;52.402;6.276;2023-06-04T17:40:00;102180.0;;;26.5;32.6
67345;BME280;54230;52.402;6.276;2023-06-04T17:45:01;102180.0;;;25.7;34.2
67345;BME280;54230;52.402;6.276;2023-06-04T17:50:00;102180.0;;;25.0;35.4
67345;BME280;54230;52.402;6.276;2023-06-04T17:55:00;102180.0;;;24.5;36.5
67345;BME280;54230;52.402;6.276;2023-06-04T18:00:00;102190.0;;;24.1;37.6
67345;BME280;54230;52.402;6.276;2023-06-04T18:05:00;102190.0;;;23.7;38.2
67345;BME280;54230;52.402;6.276;2023-06-04T18:10:00;102200.0;;;23.3;39.0
67345;BME280;54230;52.402;6.276;2023-06-04T18:15:00;102200.0;;;23.1;39.9
67345;BME280;54230;52.402;6.276;2023-06-04T18:20:00;102210.0;;;22.6;40.4
67345;BME280;54230;52.402;6.276;2023-06-04T18:25:00;102210.0;;;22.4;41.2
67345;BME280;54230;52.402;6.276;2023-06-04T18:30:00;102220.0;;;22.2;41.6
67345;BME280;54230;52.402;6.276;2023-06-04T18:35:00;102220.0;;;21.9;41.9
67345;BME280;54230;52.402;6.276;2023-06-04T18:40:00;102230.0;;;21.5;42.7
67345;BME280;54230;52.402;6.276;2023-06-04T18:45:00;102220.0;;;21.4;43.5
67345;BME280;54230;52.402;6.276;2023-06-04T18:50:00;102230.0;;;21.3;44.4
67345;BME280;54230;52.402;6.276;2023-06-04T18:55:00;102230.0;;;21.2;45.5
67345;BME280;54230;52.402;6.276;2023-06-04T19:00:00;102230.0;;;21.2;45.5
67345;BME280;54230;52.402;6.276;2023-06-04T19:05:00;102230.0;;;20.9;46.0
67345;BME280;54230;52.402;6.276;2023-06-04T19:10:00;102240.0;;;20.7;46.3
67345;BME280;54230;52.402;6.276;2023-06-04T19:15:00;102240.0;;;20.5;47.0
67345;BME280;54230;52.402;6.276;2023-06-04T19:20:00;102250.0;;;20.4;47.2
67345;BME280;54230;52.402;6.276;2023-06-04T19:25:00;102250.0;;;20.2;47.5
67345;BME280;54230;52.402;6.276;2023-06-04T19:30:00;102250.0;;;20.0;47.6
67345;BME280;54230;52.402;6.276;2023-06-04T19:35:00;102260.0;;;19.8;47.9
67345;BME280;54230;52.402;6.276;2023-06-04T19:40:00;102260.0;;;19.5;48.4
67345;BME280;54230;52.402;6.276;2023-06-04T19:45:00;102270.0;;;19.2;48.7
67345;BME280;54230;52.402;6.276;2023-06-04T19:50:00;102270.0;;;19.0;49.1
67345;BME280;54230;52.402;6.276;2023-06-04T19:55:00;102290.0;;;19.0;50.0
67345;BME280;54230;52.402;6.276;2023-06-04T20:00:00;102290.0;;;18.8;50.1
67345;BME280;54230;52.402;6.276;2023-06-04T20:05:00;102300.0;;;18.7;50.5
67345;BME280;54230;52.402;6.276;2023-06-04T20:10:01;102300.0;;;18.4;50.7
67345;BME280;54230;52.402;6.276;2023-06-04T20:15:00;102300.0;;;18.3;51.1
67345;BME280;54230;52.402;6.276;2023-06-04T20:20:00;102310.0;;;18.0;51.5
67345;BME280;54230;52.402;6.276;2023-06-04T20:25:00;102310.0;;;17.9;52.2
67345;BME280;54230;52.402;6.276;2023-06-04T20:30:00;102310.0;;;17.8;52.7
67345;BME280;54230;52.402;6.276;2023-06-04T20:35:00;102320.0;;;17.6;53.1
67345;BME280;54230;52.402;6.276;2023-06-04T20:40:00;102320.0;;;17.5;53.6
67345;BME280;54230;52.402;6.276;2023-06-04T20:45:00;102330.0;;;17.4;53.9
67345;BME280;54230;52.402;6.276;2023-06-04T20:50:00;102340.0;;;17.2;54.4
67345;BME280;54230;52.402;6.276;2023-06-04T20:55:00;102340.0;;;17.1;55.1
67345;BME280;54230;52.402;6.276;2023-06-04T21:00:00;102340.0;;;17.0;55.5
67345;BME280;54230;52.402;6.276;2023-06-04T21:05:00;102350.0;;;17.0;55.7
67345;BME280;54230;52.402;6.276;2023-06-04T21:10:00;102350.0;;;16.8;56.2
67345;BME280;54230;52.402;6.276;2023-06-04T21:15:00;102340.0;;;16.7;56.8
67345;BME280;54230;52.402;6.276;2023-06-04T21:20:00;102350.0;;;16.6;56.8
67345;BME280;54230;52.402;6.276;2023-06-04T21:25:00;102350.0;;;16.3;57.4
67345;BME280;54230;52.402;6.276;2023-06-04T21:30:00;102350.0;;;15.9;58.1
67345;BME280;54230;52.402;6.276;2023-06-04T21:35:00;102350.0;;;15.9;58.4
67345;BME280;54230;52.402;6.276;2023-06-04T21:40:00;102350.0;;;15.7;58.7
67345;BME280;54230;52.402;6.276;2023-06-04T21:45:00;102360.0;;;15.7;59.2
67345;BME280;54230;52.402;6.276;2023-06-04T21:50:00;102370.0;;;15.6;59.6
67345;BME280;54230;52.402;6.276;2023-06-04T21:55:00;102360.0;;;15.5;59.8
67345;BME280;54230;52.402;6.276;2023-06-04T22:00:00;102360.0;;;15.4;60.3
67345;BME280;54230;52.402;6.276;2023-06-04T22:05:00;102360.0;;;15.3;60.7
67345;BME280;54230;52.402;6.276;2023-06-04T22:10:00;102360.0;;;15.2;61.1
67345;BME280;54230;52.402;6.276;2023-06-04T22:15:00;102370.0;;;15.2;61.2
67345;BME280;54230;52.402;6.276;2023-06-04T22:20:00;102380.0;;;15.1;61.5
67345;BME280;54230;52.402;6.276;2023-06-04T22:25:00;102370.0;;;15.0;61.6
67345;BME280;54230;52.402;6.276;2023-06-04T22:30:00;102370.0;;;15.0;61.8
67345;BME280;54230;52.402;6.276;2023-06-04T22:35:00;102370.0;;;14.9;62.2
67345;BME280;54230;52.402;6.276;2023-06-04T22:40:00;102370.0;;;14.9;62.3
67345;BME280;54230;52.402;6.276;2023-06-04T22:45:00;102380.0;;;14.8;62.5
67345;BME280;54230;52.402;6.276;2023-06-04T22:50:00;102380.0;;;14.8;62.7
67345;BME280;54230;52.402;6.276;2023-06-04T22:55:00;102370.0;;;14.6;62.9
67345;BME280;54230;52.402;6.276;2023-06-04T23:00:00;102380.0;;;14.6;63.3
67345;BME280;54230;52.402;6.276;2023-06-04T23:05:00;102380.0;;;14.6;63.9
67345;BME280;54230;52.402;6.276;2023-06-04T23:10:00;102380.0;;;14.7;63.7
67345;BME280;54230;52.402;6.276;2023-06-04T23:15:00;102380.0;;;14.6;64.0
67345;BME280;54230;52.402;6.276;2023-06-04T23:20:00;102370.0;;;14.6;64.0
67345;BME280;54230;52.402;6.276;2023-06-04T23:25:00;102380.0;;;14.6;63.7
67345;BME280;54230;52.402;6.276;2023-06-04T23:30:00;102390.0;;;14.6;63.9
67345;BME280;54230;52.402;6.276;2023-06-04T23:35:00;102380.0;;;14.5;64.4
67345;BME280;54230;52.402;6.276;2023-06-04T23:40:00;102390.0;;;14.4;64.5
67345;BME280;54230;52.402;6.276;2023-06-04T23:45:00;102390.0;;;14.4;64.8
67345;BME280;54230;52.402;6.276;2023-06-04T23:50:00;102390.0;;;14.4;64.6
67345;BME280;54230;52.402;6.276;2023-06-04T23:55:00;102390.0;;;14.4;64.7
